Time;durP1;ratioP1;P1;durP2;ratioP2;P2;SDS_P1;SDS_P2;PMS_P1;PMS_P2;Temp;Humidity;BMP_temperature;BMP_pressure;BME280_temperature;BME280_humidity;BME280_pressure;Samples;Min_cycle;Max_cycle;Signal;HPM_P1;HPM_P2
2023/04/26 00:00:13;;;;;;;2.67;1.73;;;;;;;10.92;73.49;100283.97;5016446;28;20050;-92
2023/04/26 00:02:39;;;;;;;4.32;2.67;;;;;;;10.90;73.73;100285.78;5016929;28;20491;-91
2023/04/26 00:05:06;;;;;;;2.63;2.40;;;;;;;10.91;73.32;100282.28;4991120;28;20034;-90
2023/04/26 00:07:31;;;;;;;3.03;1.88;;;;;;;10.84;73.53;100274.06;4991040;28;20508;-92
2023/04/26 00:09:57;;;;;;;3.53;2.28;;;;;;;10.89;73.56;100269.44;5006357;28;20032;-89
2023/04/26 00:12:22;;;;;;;2.65;2.17;;;;;;;10.90;74.13;100280.63;5015469;28;20034;-91
2023/04/26 00:14:48;;;;;;;5.88;3.22;;;;;;;10.84;73.49;100250.75;5015813;28;20484;-90
2023/04/26 00:17:13;;;;;;;3.50;2.72;;;;;;;10.93;73.40;100270.13;5015814;28;20050;-90
2023/04/26 00:19:39;;;;;;;3.55;2.83;;;;;;;10.90;73.58;100267.69;5016691;28;20028;-92
2023/04/26 00:22:04;;;;;;;5.63;3.03;;;;;;;10.87;73.94;100270.44;4981584;28;20045;-91
2023/04/26 00:24:31;;;;;;;3.55;2.53;;;;;;;10.89;73.80;100264.25;4998389;28;20037;-94
2023/04/26 00:26:56;;;;;;;4.70;2.80;;;;;;;10.80;74.01;100269.13;5007425;28;20029;-90
2023/04/26 00:29:22;;;;;;;3.67;2.38;;;;;;;10.65;73.60;100233.75;4997668;28;20091;-91
2023/04/26 00:31:47;;;;;;;3.40;2.47;;;;;;;10.78;74.13;100255.44;5015095;28;20036;-92
2023/04/26 00:34:13;;;;;;;4.55;2.70;;;;;;;10.76;74.02;100252.94;4990559;28;20033;-92
2023/04/26 00:36:38;;;;;;;3.67;2.53;;;;;;;10.72;74.33;100246.28;4998138;28;20043;-92
2023/04/26 00:39:04;;;;;;;6.30;2.22;;;;;;;10.74;73.80;100243.59;4998800;28;20060;-91
2023/04/26 00:41:29;;;;;;;4.00;3.03;;;;;;;10.65;73.89;100244.09;4990649;28;20033;-92
2023/04/26 00:43:55;;;;;;;2.60;2.05;;;;;;;10.67;74.26;100242.25;4998692;28;20042;-91
2023/04/26 00:46:20;;;;;;;31.55;2.20;;;;;;;10.49;74.02;100219.06;5013697;28;20491;-90
2023/04/26 00:48:46;;;;;;;2.50;1.42;;;;;;;10.58;74.46;100239.25;4998479;28;20040;-93
2023/04/26 00:51:11;;;;;;;3.75;2.33;;;;;;;10.54;74.58;100230.00;4998720;28;20179;-90
2023/04/26 00:53:37;;;;;;;4.38;2.85;;;;;;;10.49;74.70;100224.25;4982004;28;20083;-92
2023/04/26 00:56:03;;;;;;;3.58;2.38;;;;;;;10.38;75.04;100216.25;4982416;28;20041;-91
2023/04/26 00:58:28;;;;;;;3.80;3.10;;;;;;;10.41;74.56;100216.06;4998542;28;20065;-92
2023/04/26 01:00:54;;;;;;;2.80;2.30;;;;;;;10.56;74.53;100224.75;4998199;28;20033;-90
2023/04/26 01:03:20;;;;;;;3.30;2.45;;;;;;;10.48;74.84;100224.34;4997407;28;20097;-90
2023/04/26 01:05:45;;;;;;;3.60;2.50;;;;;;;10.50;74.24;100230.25;5014488;28;20026;-91
2023/04/26 01:08:11;;;;;;;3.08;2.33;;;;;;;10.55;74.88;100231.69;4980932;28;20049;-92
2023/04/26 01:10:36;;;;;;;3.92;2.75;;;;;;;10.55;73.97;100233.44;4997690;28;20038;-94
2023/04/26 01:13:02;;;;;;;5.07;3.40;;;;;;;10.65;73.74;100244.94;4998041;28;20041;-89
2023/04/26 01:15:29;;;;;;;5.65;3.80;;;;;;;10.68;73.89;100251.69;4980949;28;20614;-93
2023/04/26 01:17:57;;;;;;;5.28;3.25;;;;;;;10.65;74.33;100238.94;4989805;28;20111;-90
2023/04/26 01:20:23;;;;;;;5.25;3.83;;;;;;;10.67;74.72;100237.91;5014161;28;20407;-92
2023/04/26 01:22:48;;;;;;;4.20;2.92;;;;;;;10.68;74.60;100233.56;5010232;28;20124;-91
2023/04/26 01:25:15;;;;;;;5.07;4.00;;;;;;;10.49;74.33;100207.88;5002553;28;20037;-93
2023/04/26 01:27:40;;;;;;;5.22;3.60;;;;;;;10.69;74.26;100245.59;5001535;28;20034;-89
2023/04/26 01:30:07;;;;;;;6.85;3.67;;;;;;;10.70;74.20;100248.09;4993895;28;20049;-90
2023/04/26 01:32:33;;;;;;;5.03;3.30;;;;;;;10.63;74.49;100236.44;5018682;28;20060;-92
2023/04/26 01:34:59;;;;;;;4.35;3.55;;;;;;;10.76;74.23;100244.34;5009784;28;20092;-90
2023/04/26 01:37:25;;;;;;;4.70;3.50;;;;;;;10.75;74.53;100250.44;5001376;28;20486;-92
2023/04/26 01:39:50;;;;;;;6.25;3.78;;;;;;;10.77;74.04;100254.59;5016903;28;20026;-92
2023/04/26 01:42:16;;;;;;;5.30;3.08;;;;;;;10.76;74.02;100254.69;5017797;28;20039;-91
2023/04/26 01:44:41;;;;;;;4.50;3.28;;;;;;;10.69;73.73;100271.47;5016757;28;20057;-92
2023/04/26 01:47:07;;;;;;;5.75;3.05;;;;;;;10.69;73.84;100271.47;4993522;28;20044;-92
2023/04/26 01:49:32;;;;;;;4.30;2.72;;;;;;;10.70;73.93;100280.88;5009644;28;20037;-92
2023/04/26 01:51:58;;;;;;;4.15;3.33;;;;;;;10.61;73.21;100264.94;5001729;28;20384;-91
2023/04/26 01:54:23;;;;;;;4.57;2.97;;;;;;;10.55;73.71;100274.81;5018549;28;20033;-92
2023/04/26 01:56:49;;;;;;;20.58;2.47;;;;;;;10.45;74.59;100268.47;5001977;28;20402;-92
2023/04/26 01:59:14;;;;;;;4.60;3.13;;;;;;;10.38;74.46;100272.28;4985591;28;20160;-91
2023/04/26 02:01:43;;;;;;;5.57;3.13;;;;;;;10.29;74.76;100263.28;4993466;28;20506;-92
2023/04/26 02:04:09;;;;;;;4.60;3.22;;;;;;;10.19;74.48;100265.47;5001323;28;20060;-93
2023/04/26 02:06:34;;;;;;;6.03;3.60;;;;;;;10.21;75.04;100270.56;4985895;28;20064;-92
2023/04/26 02:09:00;;;;;;;2.88;2.08;;;;;;;10.02;75.90;100256.03;5009365;28;20045;-93
2023/04/26 02:11:25;;;;;;;4.75;2.92;;;;;;;9.90;75.65;100230.81;5000489;28;20426;-91
2023/04/26 02:13:52;;;;;;;4.28;2.83;;;;;;;9.80;75.53;100219.31;5017311;28;20038;-90
2023/04/26 02:16:17;;;;;;;4.05;2.92;;;;;;;9.84;75.99;100238.91;5017247;28;20087;-92
2023/04/26 02:18:43;;;;;;;5.53;2.42;;;;;;;9.95;76.22;100259.03;5017113;28;20066;-93
2023/04/26 02:21:10;;;;;;;2.78;2.08;;;;;;;9.95;75.97;100249.53;5001772;28;20037;-92
2023/04/26 02:23:35;;;;;;;5.82;3.10;;;;;;;9.96;75.07;100246.03;5001229;28;20034;-91
2023/04/26 02:26:00;;;;;;;2.75;2.28;;;;;;;10.03;75.38;100257.72;5008773;28;20036;-92
2023/04/26 02:28:26;;;;;;;3.15;2.50;;;;;;;10.03;75.46;100257.72;5009125;28;20108;-92
2023/04/26 02:30:51;;;;;;;3.45;2.38;;;;;;;10.00;75.69;100247.53;5000947;28;20092;-91
2023/04/26 02:33:17;;;;;;;4.70;2.75;;;;;;;9.98;75.90;100241.59;4999594;28;20041;-91
2023/04/26 02:35:42;;;;;;;2.78;2.47;;;;;;;9.99;75.66;100240.69;5018786;28;20025;-92
2023/04/26 02:38:08;;;;;;;1.60;1.50;;;;;;;9.95;75.82;100239.19;5000027;28;20029;-90
2023/04/26 02:40:33;;;;;;;6.60;3.30;;;;;;;9.99;75.38;100238.09;5001769;28;20029;-91
2023/04/26 02:42:58;;;;;;;3.97;2.38;;;;;;;9.96;75.17;100230.53;5001391;28;20893;-93
2023/04/26 02:45:24;;;;;;;1.05;1.00;;;;;;;9.93;75.53;100235.00;5008843;28;20036;-90
2023/04/26 02:47:49;;;;;;;6.32;2.88;;;;;;;9.96;75.27;100238.28;4993227;28;20041;-89
2023/04/26 02:50:15;;;;;;;3.08;1.83;;;;;;;10.00;74.87;100232.00;5001036;28;21519;-92
2023/04/26 02:52:40;;;;;;;10.43;2.72;;;;;;;9.97;75.12;100231.34;4984438;28;20040;-89
2023/04/26 02:55:06;;;;;;;5.47;2.85;;;;;;;9.97;74.39;100211.50;5015963;28;20045;-88
2023/04/26 02:57:32;;;;;;;2.05;1.35;;;;;;;10.11;73.83;100228.88;5016610;28;20032;-90
2023/04/26 02:59:58;;;;;;;3.55;2.63;;;;;;;10.22;73.90;100228.31;4990589;28;20033;-92
2023/04/26 03:02:23;;;;;;;4.63;2.90;;;;;;;10.26;73.27;100232.44;4991651;28;20517;-91
2023/04/26 03:04:49;;;;;;;3.10;2.10;;;;;;;10.23;72.93;100219.69;4984122;28;20040;-91
2023/04/26 03:07:14;;;;;;;4.80;1.85;;;;;;;10.26;73.11;100233.25;5014793;28;20060;-92
2023/04/26 03:09:40;;;;;;;6.68;2.63;;;;;;;10.19;73.31;100218.13;4999646;28;20041;-89
2023/04/26 03:12:05;;;;;;;5.97;3.30;;;;;;;10.24;73.24;100229.09;5000551;28;20033;-90
2023/04/26 03:14:32;;;;;;;5.07;2.47;;;;;;;10.28;73.13;100228.84;5015961;28;20055;-91
2023/04/26 03:16:58;;;;;;;3.22;1.95;;;;;;;10.23;73.07;100219.69;5014765;28;20098;-93
2023/04/26 03:19:23;;;;;;;3.08;2.33;;;;;;;9.98;72.95;100176.16;5000420;28;20112;-91
2023/04/26 03:21:48;;;;;;;4.05;2.65;;;;;;;10.30;72.78;100228.75;5015823;28;20476;-91
2023/04/26 03:24:14;;;;;;;6.75;4.82;;;;;;;10.31;71.97;100231.25;5014856;28;20496;-92
2023/04/26 03:26:39;;;;;;;4.72;2.67;;;;;;;10.28;73.06;100222.81;4998788;28;20034;-92
2023/04/26 03:29:06;;;;;;;9.05;6.15;;;;;;;10.21;72.67;100229.22;4998996;28;20034;-90
2023/04/26 03:31:31;;;;;;;14.18;5.53;;;;;;;10.16;73.06;100218.28;5014830;28;20507;-92
2023/04/26 03:33:57;;;;;;;5.50;3.75;;;;;;;10.16;72.97;100218.28;5004687;28;20081;-91
2023/04/26 03:36:22;;;;;;;7.10;4.80;;;;;;;10.19;72.79;100223.28;5016711;28;20032;-90
2023/04/26 03:38:48;;;;;;;11.68;5.32;;;;;;;10.10;72.96;100227.19;5017439;28;20144;-92
2023/04/26 03:41:13;;;;;;;6.18;3.75;;;;;;;10.07;73.16;100227.38;5031279;28;20687;-91
2023/04/26 03:43:39;;;;;;;5.00;3.92;;;;;;;10.00;73.08;100231.19;5013822;28;20398;-92
2023/04/26 03:46:04;;;;;;;5.60;3.47;;;;;;;9.93;73.03;100204.84;5013826;28;20025;-91
2023/04/26 03:48:30;;;;;;;11.82;2.35;;;;;;;9.89;72.97;100202.50;5030865;28;20091;-89
2023/04/26 03:50:55;;;;;;;8.60;4.75;;;;;;;9.99;72.22;100220.00;5030931;28;20033;-88
2023/04/26 03:53:20;;;;;;;7.20;4.18;;;;;;;9.92;72.62;100208.31;5030996;28;20041;-91
2023/04/26 03:55:46;;;;;;;16.67;5.25;;;;;;;9.84;72.38;100196.75;5031068;28;20036;-90
2023/04/26 03:58:11;;;;;;;10.43;4.75;;;;;;;10.04;72.07;100223.22;5032055;28;20034;-90
2023/04/26 04:00:37;;;;;;;7.72;4.80;;;;;;;10.10;71.21;100234.13;5031733;28;20032;-91
2023/04/26 04:03:03;;;;;;;3.58;2.83;;;;;;;10.15;71.57;100235.56;5030823;28;20041;-91
2023/04/26 04:05:29;;;;;;;3.70;2.25;;;;;;;10.15;71.66;100235.56;5014273;28;20064;-92
2023/04/26 04:07:55;;;;;;;3.20;2.22;;;;;;;10.15;71.05;100234.72;5030323;28;20152;-90
2023/04/26 04:10:22;;;;;;;1.27;1.17;;;;;;;10.15;70.72;100214.03;5030091;28;20029;-89
2023/04/26 04:12:48;;;;;;;3.13;2.10;;;;;;;10.25;70.43;100233.34;5027653;28;20042;-90
2023/04/26 04:15:13;;;;;;;2.20;1.70;;;;;;;10.32;69.82;100235.53;5010268;28;20116;-86
2023/04/26 04:17:39;;;;;;;6.05;2.50;;;;;;;10.16;69.59;100205.38;5003855;28;20077;-86
2023/04/26 04:20:06;;;;;;;3.97;2.45;;;;;;;10.41;68.84;100236.75;5029850;28;20029;-90
2023/04/26 04:22:31;;;;;;;2.35;2.05;;;;;;;10.42;69.21;100229.81;5030082;28;20029;-89
2023/04/26 04:24:58;;;;;;;3.10;1.65;;;;;;;10.48;69.54;100247.59;5031234;28;20040;-83
2023/04/26 04:27:24;;;;;;;3.38;2.33;;;;;;;10.47;68.63;100241.59;5028199;28;20041;-87
2023/04/26 04:29:49;;;;;;;3.28;2.30;;;;;;;10.48;69.02;100245.84;4995581;28;20025;-90
2023/04/26 04:32:16;;;;;;;2.35;2.03;;;;;;;10.53;68.65;100245.63;5000896;28;20029;-91
2023/04/26 04:34:42;;;;;;;3.42;2.05;;;;;;;10.60;69.16;100254.69;5009250;28;20025;-93
2023/04/26 04:37:08;;;;;;;2.92;2.08;;;;;;;10.64;68.89;100253.63;5007321;28;20062;-92
2023/04/26 04:39:33;;;;;;;3.70;2.28;;;;;;;10.71;67.94;100261.84;5150399;23;20049;-87
2023/04/26 04:42:00;;;;;;;2.63;1.65;;;;;;;10.76;67.37;100265.03;5011888;28;20095;-95
2023/04/26 04:44:25;;;;;;;2.17;1.70;;;;;;;10.80;67.57;100263.94;4995174;28;20036;-91
2023/04/26 04:46:51;;;;;;;2.90;2.22;;;;;;;10.76;65.75;100234.00;5010900;28;20018;-88
2023/04/26 04:49:17;;;;;;;4.45;2.70;;;;;;;10.67;66.54;100204.28;5024732;28;20034;-88
2023/04/26 04:51:43;;;;;;;3.00;1.90;;;;;;;10.91;65.16;100231.38;5028257;28;20083;-86
2023/04/26 04:54:10;;;;;;;11.00;3.90;;;;;;;11.08;65.76;100252.88;4993293;28;20053;-88
2023/04/26 04:56:36;;;;;;;3.88;2.00;;;;;;;11.17;64.86;100266.13;5020942;28;21043;-91
2023/04/26 04:59:01;;;;;;;4.68;1.23;;;;;;;11.20;64.35;100259.94;5034440;28;20036;-91
2023/04/26 05:01:26;;;;;;;1.70;1.27;;;;;;;11.39;62.96;100272.66;5010867;28;20503;-93
2023/04/26 05:03:52;;;;;;;3.58;2.28;;;;;;;11.44;64.46;100273.25;5022671;28;20148;-89
2023/04/26 05:06:17;;;;;;;0.75;0.73;;;;;;;11.22;63.42;100215.84;5016057;28;20018;-86
2023/04/26 05:08:43;;;;;;;1.83;1.27;;;;;;;11.21;62.65;100222.78;5028790;28;20041;-88
2023/04/26 05:11:08;;;;;;;4.75;1.50;;;;;;;11.60;62.21;100271.44;5034484;28;20055;-88
2023/04/26 05:13:34;;;;;;;5.43;1.08;;;;;;;11.70;61.60;100272.56;5027065;28;20034;-92
2023/04/26 05:15:59;;;;;;;3.03;1.77;;;;;;;11.70;61.44;100272.56;5028941;28;20022;-88
2023/04/26 05:18:25;;;;;;;1.67;1.27;;;;;;;11.76;61.63;100277.38;5032598;28;20037;-89
2023/04/26 05:20:50;;;;;;;1.02;0.70;;;;;;;11.90;61.14;100273.16;5033198;28;20509;-95
2023/04/26 05:23:16;;;;;;;2.45;1.25;;;;;;;11.92;60.16;100272.16;5015798;28;20435;-91
2023/04/26 05:25:42;;;;;;;3.67;1.98;;;;;;;11.97;59.64;100269.25;5015399;28;20034;-91
2023/04/26 05:28:11;;;;;;;3.15;1.52;;;;;;;12.15;59.43;100288.06;5018353;28;20040;-93
2023/04/26 05:30:37;;;;;;;1.88;1.35;;;;;;;12.05;59.19;100252.31;5000453;28;20131;-85
2023/04/26 05:33:02;;;;;;;5.63;1.10;;;;;;;12.25;58.20;100268.44;5032139;28;20424;-89
2023/04/26 05:35:28;;;;;;;1.45;0.95;;;;;;;12.35;57.77;100277.31;5031980;28;20018;-85
2023/04/26 05:37:53;;;;;;;2.13;0.90;;;;;;;12.44;57.58;100288.88;4987354;28;20140;-91
2023/04/26 05:40:19;;;;;;;1.85;1.23;;;;;;;12.49;56.51;100303.25;5012418;28;20049;-89
2023/04/26 05:42:44;;;;;;;3.25;1.20;;;;;;;12.48;55.80;100265.22;5012854;28;20022;-88
2023/04/26 05:45:10;;;;;;;3.28;1.50;;;;;;;12.56;56.49;100281.16;5012099;28;20022;-89
2023/04/26 05:47:36;;;;;;;1.67;1.15;;;;;;;12.62;56.16;100269.56;5012192;28;20543;-91
2023/04/26 05:50:01;;;;;;;2.72;1.30;;;;;;;12.89;55.89;100296.38;5012808;28;20022;-90
2023/04/26 05:52:27;;;;;;;1.98;1.15;;;;;;;12.96;52.56;100291.59;5011589;28;20033;-91
2023/04/26 05:54:52;;;;;;;2.65;1.27;;;;;;;13.00;53.30;100306.09;4995996;28;20030;-87
2023/04/26 05:57:18;;;;;;;2.35;1.27;;;;;;;13.05;51.93;100305.78;4994351;28;20483;-89
2023/04/26 05:59:44;;;;;;;1.52;1.10;;;;;;;13.07;52.16;100303.91;4981368;28;20050;-92
2023/04/26 06:02:10;;;;;;;2.22;1.23;;;;;;;13.15;51.90;100292.09;5008721;28;20310;-90
2023/04/26 06:04:36;;;;;;;2.08;1.20;;;;;;;13.17;51.57;100297.19;5012320;28;20080;-88
2023/04/26 06:07:01;;;;;;;3.10;1.52;;;;;;;13.36;51.25;100315.03;5013211;28;20029;-88
2023/04/26 06:09:26;;;;;;;2.88;1.65;;;;;;;13.38;50.85;100301.03;5031493;28;20041;-90
2023/04/26 06:11:52;;;;;;;1.60;1.10;;;;;;;13.50;51.28;100312.38;4996588;28;20088;-88
2023/04/26 06:14:18;;;;;;;2.13;1.30;;;;;;;13.43;49.90;100327.53;5013597;28;20030;-92
2023/04/26 06:16:43;;;;;;;2.15;0.98;;;;;;;13.46;48.58;100318.69;4998774;28;20136;-93
2023/04/26 06:19:09;;;;;;;2.45;1.40;;;;;;;13.53;49.50;100319.13;4993063;28;20026;-88
2023/04/26 06:21:34;;;;;;;1.65;1.17;;;;;;;13.62;50.01;100327.16;4995527;28;20025;-85
2023/04/26 06:24:00;;;;;;;2.60;1.63;;;;;;;13.71;49.73;100330.91;4994247;28;20064;-93
2023/04/26 06:26:25;;;;;;;5.18;1.48;;;;;;;13.73;50.09;100326.44;5013215;28;20037;-87
2023/04/26 06:28:51;;;;;;;3.20;1.40;;;;;;;13.77;50.77;100325.31;5028074;28;20084;-84
2023/04/26 06:31:16;;;;;;;2.40;1.10;;;;;;;13.74;49.38;100322.91;5012273;28;20096;-90
2023/04/26 06:33:42;;;;;;;3.60;1.25;;;;;;;13.74;49.43;100310.75;4996264;28;20498;-86
2023/04/26 06:36:11;;;;;;;1.92;1.23;;;;;;;13.83;47.35;100329.25;5011193;28;20029;-88
2023/04/26 06:38:36;;;;;;;3.38;1.52;;;;;;;13.76;47.50;100321.03;4988353;28;20064;-84
2023/04/26 06:41:02;;;;;;;1.50;1.02;;;;;;;13.67;47.38;100303.47;5013617;28;20049;-86
2023/04/26 06:43:27;;;;;;;1.98;1.27;;;;;;;13.78;48.70;100308.78;5016098;28;20030;-89
2023/04/26 06:45:53;;;;;;;1.10;0.82;;;;;;;13.88;47.86;100322.84;5011687;28;20037;-87
2023/04/26 06:48:19;;;;;;;2.03;1.45;;;;;;;14.01;47.80;100323.66;5028492;28;20041;-88
2023/04/26 06:50:44;;;;;;;1.77;1.35;;;;;;;13.99;48.13;100333.34;5011695;28;20042;-83
2023/04/26 06:53:09;;;;;;;1.05;0.75;;;;;;;14.06;47.39;100332.00;5011038;28;20491;-84
2023/04/26 06:55:35;;;;;;;1.27;0.85;;;;;;;14.06;47.18;100339.78;5010603;28;20052;-87
2023/04/26 06:58:00;;;;;;;1.77;1.30;;;;;;;13.93;47.59;100309.50;5011122;28;20022;-88
2023/04/26 07:00:26;;;;;;;2.40;1.55;;;;;;;14.29;47.60;100350.41;5011254;28;20065;-87
2023/04/26 07:02:52;;;;;;;1.90;1.25;;;;;;;14.25;45.51;100354.97;5026613;28;20046;-90
2023/04/26 07:05:18;;;;;;;1.80;1.10;;;;;;;14.16;47.32;100346.94;5027377;28;20030;-85
2023/04/26 07:07:43;;;;;;;2.13;1.48;;;;;;;14.17;45.83;100343.44;5010641;28;20538;-89
2023/04/26 07:10:10;;;;;;;1.55;1.20;;;;;;;14.30;45.64;100352.88;5010373;28;20033;-90
2023/04/26 07:12:35;;;;;;;3.35;2.10;;;;;;;14.27;46.75;100339.25;5010453;28;20056;-89
2023/04/26 07:15:02;;;;;;;3.88;1.63;;;;;;;14.17;45.83;100338.22;5027978;28;20472;-87
2023/04/26 07:17:27;;;;;;;4.72;3.15;;;;;;;14.19;45.18;100351.97;5012888;28;20022;-84
2023/04/26 07:19:52;;;;;;;2.45;1.48;;;;;;;14.23;45.58;100356.00;5010577;28;20108;-87
2023/04/26 07:22:18;;;;;;;2.78;1.42;;;;;;;14.23;46.10;100359.44;5010366;28;20034;-90
2023/04/26 07:24:44;;;;;;;3.28;1.75;;;;;;;14.19;45.97;100342.38;5027999;28;20030;-88
2023/04/26 07:27:09;;;;;;;8.70;1.63;;;;;;;14.45;46.84;100365.81;5009481;28;20530;-87
2023/04/26 07:29:35;;;;;;;3.63;1.90;;;;;;;14.54;44.99;100352.97;5008578;28;20504;-88
2023/04/26 07:32:00;;;;;;;4.10;2.03;;;;;;;14.64;45.06;100356.59;5008350;28;20037;-89
2023/04/26 07:34:26;;;;;;;2.00;1.35;;;;;;;14.40;44.50;100324.47;5008171;28;20479;-88
2023/04/26 07:36:51;;;;;;;2.00;1.48;;;;;;;14.64;43.69;100358.38;4991372;28;20113;-89
2023/04/26 07:39:17;;;;;;;2.05;1.30;;;;;;;14.72;44.54;100370.88;4988127;28;20517;-86
2023/04/26 07:41:42;;;;;;;4.38;2.42;;;;;;;14.73;44.83;100375.13;5008584;28;20487;-91
2023/04/26 07:44:09;;;;;;;3.85;1.75;;;;;;;14.85;44.25;100356.88;5010765;28;20487;-92
2023/04/26 07:46:34;;;;;;;2.97;1.92;;;;;;;14.87;45.03;100346.38;5010458;28;20044;-89
2023/04/26 07:49:00;;;;;;;3.97;2.30;;;;;;;14.89;44.26;100331.44;5010539;28;20037;-91
2023/04/26 07:51:26;;;;;;;3.65;1.95;;;;;;;15.27;46.10;100364.34;5008906;28;20033;-82
2023/04/26 07:53:51;;;;;;;5.53;2.67;;;;;;;15.34;43.00;100369.00;5010727;28;20033;-91
2023/04/26 07:56:17;;;;;;;7.93;3.22;;;;;;;15.19;42.63;100355.28;5008266;28;20079;-90
2023/04/26 07:58:42;;;;;;;5.50;2.92;;;;;;;15.23;43.40;100355.06;5025862;28;20053;-86
2023/04/26 08:01:10;;;;;;;3.35;2.08;;;;;;;15.10;43.49;100344.69;5011140;28;20030;-93
2023/04/26 08:03:36;;;;;;;3.60;1.67;;;;;;;15.11;43.22;100360.22;5009692;28;20521;-84
2023/04/26 08:06:01;;;;;;;5.28;2.95;;;;;;;15.21;45.05;100371.66;5008934;28;20033;-85
2023/04/26 08:08:27;;;;;;;4.38;2.03;;;;;;;15.28;42.54;100369.44;5009327;28;20113;-87
2023/04/26 08:10:53;;;;;;;2.85;1.98;;;;;;;15.35;42.72;100369.84;5026285;28;20040;-93
2023/04/26 08:13:18;;;;;;;3.60;2.10;;;;;;;15.38;44.10;100360.00;5012326;28;20034;-90
2023/04/26 08:15:44;;;;;;;2.90;1.80;;;;;;;15.47;42.47;100369.75;4992216;28;20410;-88
2023/04/26 08:18:09;;;;;;;2.67;1.58;;;;;;;15.50;43.08;100360.88;4993204;28;20034;-89
2023/04/26 08:20:35;;;;;;;1.30;0.80;;;;;;;15.23;42.27;100344.63;5008630;28;20070;-90
2023/04/26 08:23:00;;;;;;;3.83;1.55;;;;;;;15.45;42.85;100368.22;5011047;28;20037;-90
2023/04/26 08:25:26;;;;;;;2.55;1.60;;;;;;;15.38;43.60;100369.59;5008724;28;20033;-86
2023/04/26 08:27:51;;;;;;;3.33;1.95;;;;;;;15.51;42.71;100370.34;5008481;28;20125;-90
2023/04/26 08:30:18;;;;;;;7.80;1.60;;;;;;;15.68;43.41;100383.03;5009383;28;20041;-91
2023/04/26 08:32:44;;;;;;;1.55;1.10;;;;;;;15.46;41.73;100346.41;5012700;28;20030;-91
2023/04/26 08:35:10;;;;;;;3.50;1.60;;;;;;;15.66;41.71;100371.88;5010289;28;20160;-93
2023/04/26 08:37:36;;;;;;;2.17;1.58;;;;;;;15.71;42.41;100374.97;4994676;28;20054;-91
2023/04/26 08:40:02;;;;;;;1.98;1.27;;;;;;;15.71;42.26;100381.97;5028603;28;20069;-90
2023/04/26 08:42:28;;;;;;;1.63;1.35;;;;;;;15.79;40.78;100387.44;5029575;28;20091;-91
2023/04/26 08:44:53;;;;;;;2.15;1.55;;;;;;;15.83;40.96;100381.06;5013978;28;20037;-91
2023/04/26 08:47:47;;;;;;;4.10;2.17;;;;;;;15.89;41.19;100379.75;5012187;28;20487;-92
2023/04/26 08:50:14;;;;;;;2.92;2.00;;;;;;;16.02;42.11;100376.09;5028273;28;20038;-90
2023/04/26 08:52:40;;;;;;;2.38;1.50;;;;;;;16.11;40.52;100387.63;5011908;28;20037;-90
2023/04/26 08:55:08;;;;;;;2.75;1.73;;;;;;;16.21;41.99;100385.16;5012292;28;20040;-91
2023/04/26 08:57:33;;;;;;;1.77;1.40;;;;;;;16.37;40.24;100377.00;5009617;28;20044;-90
2023/04/26 09:00:00;;;;;;;2.30;1.50;;;;;;;16.40;40.38;100384.56;5011964;28;20025;-89
2023/04/26 09:02:25;;;;;;;2.83;1.77;;;;;;;16.44;40.28;100386.03;5028262;28;20464;-92
2023/04/26 09:04:51;;;;;;;5.07;2.08;;;;;;;16.37;39.30;100383.03;5028140;28;20033;-92
2023/04/26 09:07:21;;;;;;;3.20;1.67;;;;;;;16.38;39.61;100386.47;5030095;28;20506;-83
2023/04/26 09:09:50;;;;;;;3.15;2.40;;;;;;;16.37;40.06;100377.00;5027316;28;20124;-81
2023/04/26 09:12:17;;;;;;;2.50;1.83;;;;;;;16.41;40.60;100397.50;5028954;28;20048;-86
2023/04/26 09:14:43;;;;;;;2.03;1.40;;;;;;;16.45;39.67;100395.50;5026970;28;20029;-91
2023/04/26 09:17:48;;;;;;;4.03;1.65;;;;;;;16.35;39.91;100398.81;5028874;28;20549;-87
2023/04/26 09:20:22;;;;;;;1.65;1.25;;;;;;;16.44;39.50;100401.69;4968337;28;20053;-87
2023/04/26 09:22:49;;;;;;;2.10;1.52;;;;;;;16.48;39.76;100397.88;4968416;28;20440;-90
2023/04/26 09:25:16;;;;;;;4.80;1.85;;;;;;;16.46;39.60;100397.16;4992757;28;20091;-92
2023/04/26 09:27:44;;;;;;;2.03;1.25;;;;;;;16.60;39.99;100409.97;5014395;28;20544;-94
2023/04/26 09:30:11;;;;;;;4.50;2.45;;;;;;;16.63;39.93;100405.38;5017366;28;20029;-84
2023/04/26 09:32:56;;;;;;;8.50;4.40;;;;;;;16.71;39.29;100406.56;5028825;28;20029;-92
2023/04/26 09:35:22;;;;;;;4.47;1.33;;;;;;;16.64;39.34;100408.81;5029505;28;20506;-90
2023/04/26 09:37:57;;;;;;;4.13;2.65;;;;;;;16.62;39.57;100395.03;4993373;28;20060;-91
2023/04/26 09:40:22;;;;;;;3.97;1.70;;;;;;;16.64;38.75;100398.38;5033245;28;20156;-92
2023/04/26 09:42:57;;;;;;;1.42;0.98;;;;;;;16.67;38.71;100407.72;5031513;28;20029;-90
2023/04/26 09:45:24;;;;;;;2.00;1.35;;;;;;;16.81;39.67;100384.00;5032814;28;20057;-91
2023/04/26 09:47:50;;;;;;;2.75;1.80;;;;;;;17.03;38.07;100396.22;5034468;28;20069;-88
2023/04/26 09:50:26;;;;;;;3.75;2.03;;;;;;;17.19;38.93;100394.03;5031691;28;20112;-93
2023/04/26 09:52:51;;;;;;;2.63;2.03;;;;;;;17.23;38.60;100390.22;5032128;28;20033;-89
2023/04/26 09:55:29;;;;;;;2.50;1.90;;;;;;;17.18;38.19;100392.38;5032696;28;20037;-88
2023/04/26 09:57:57;;;;;;;2.25;1.38;;;;;;;16.88;37.90;100379.94;5013640;28;20022;-87
2023/04/26 10:00:23;;;;;;;4.65;2.10;;;;;;;17.01;38.57;100387.66;5031118;28;20033;-86
2023/04/26 10:02:48;;;;;;;1.67;1.40;;;;;;;16.99;37.69;100400.00;5013943;28;20083;-90
2023/04/26 10:05:14;;;;;;;2.15;1.40;;;;;;;17.05;38.02;100392.53;5026644;28;20449;-90
2023/04/26 10:07:40;;;;;;;2.13;1.48;;;;;;;17.05;38.31;100381.25;5015450;28;20033;-88
2023/04/26 10:10:06;;;;;;;3.33;1.98;;;;;;;17.41;38.32;100386.13;5015818;28;20033;-92
2023/04/26 10:12:32;;;;;;;3.22;1.95;;;;;;;17.45;37.27;100384.91;5015883;28;20128;-93
2023/04/26 10:14:57;;;;;;;2.03;1.38;;;;;;;17.54;37.10;100383.34;5014421;28;20479;-85
2023/04/26 10:17:23;;;;;;;4.82;1.13;;;;;;;17.54;37.68;100398.19;5016302;28;20026;-91
2023/04/26 10:19:51;;;;;;;5.93;1.95;;;;;;;17.20;37.06;100395.69;5029841;28;20099;-84
2023/04/26 10:22:20;;;;;;;3.22;1.98;;;;;;;17.28;37.74;100384.63;5013370;28;20411;-89
2023/04/26 10:24:46;;;;;;;2.65;1.83;;;;;;;17.18;37.71;100389.75;5011899;28;20067;-87
2023/04/26 10:27:12;;;;;;;1.52;1.00;;;;;;;17.09;36.89;100382.63;5030296;28;20487;-87
2023/04/26 10:29:52;;;;;;;3.88;1.73;;;;;;;17.08;37.92;100387.03;5015429;28;20044;-90
2023/04/26 10:32:18;;;;;;;3.88;1.55;;;;;;;16.95;38.49;100369.84;5032135;28;20036;-87
2023/04/26 10:34:44;;;;;;;2.60;1.00;;;;;;;17.23;37.07;100398.06;5031645;28;20029;-92
2023/04/26 10:37:16;;;;;;;2.55;1.67;;;;;;;17.26;36.64;100376.91;5018383;28;20029;-90
2023/04/26 10:39:42;;;;;;;2.00;1.38;;;;;;;17.53;37.01;100370.38;5013626;28;20049;-92
2023/04/26 10:42:29;;;;;;;1.92;1.23;;;;;;;17.67;35.99;100398.84;5031645;28;20033;-89
2023/04/26 10:44:58;;;;;;;6.32;1.70;;;;;;;17.93;36.52;100404.59;5016449;28;20052;-90
2023/04/26 10:47:29;;;;;;;2.70;1.35;;;;;;;17.99;34.87;100406.69;5031360;28;20025;-91
2023/04/26 10:50:08;;;;;;;1.88;1.05;;;;;;;18.15;34.69;100387.91;5031436;28;20798;-93
2023/04/26 10:52:35;;;;;;;4.05;1.73;;;;;;;18.25;34.15;100399.25;4997841;28;20549;-89
2023/04/26 10:55:01;;;;;;;12.00;2.22;;;;;;;18.41;34.91;100404.03;5030177;28;20069;-93
2023/04/26 10:57:51;;;;;;;5.80;1.15;;;;;;;18.00;35.21;100388.25;5031779;28;20087;-90
2023/04/26 11:00:19;;;;;;;3.13;1.38;;;;;;;18.16;33.96;100413.13;5011794;28;20026;-87
2023/04/26 11:02:51;;;;;;;3.05;1.80;;;;;;;17.99;36.13;100402.31;5032866;28;20029;-91
2023/04/26 11:05:32;;;;;;;1.33;1.03;;;;;;;18.06;34.35;100387.72;5031929;28;20033;-91
2023/04/26 11:08:14;;;;;;;1.58;1.25;;;;;;;18.09;35.93;100399.72;5031203;28;20029;-83
2023/04/26 11:10:39;;;;;;;1.87;1.10;;;;;;;18.10;33.74;100397.94;5029598;28;20060;-91
2023/04/26 11:13:05;;;;;;;2.17;1.50;;;;;;;18.27;35.04;100407.81;5014151;28;20064;-91
2023/04/26 11:15:31;;;;;;;4.35;1.67;;;;;;;18.48;34.32;100395.50;5016888;28;20028;-89
2023/04/26 11:17:56;;;;;;;1.73;1.20;;;;;;;18.43;34.16;100396.88;5033655;28;20026;-88
2023/04/26 11:20:22;;;;;;;1.80;1.17;;;;;;;18.37;35.16;100398.22;5031413;28;20474;-90
2023/04/26 11:22:47;;;;;;;1.95;1.20;;;;;;;18.59;34.28;100397.22;5045353;28;20478;-91